sensor_id;sensor_type;location;lat;lon;timestamp;pressure;altitude;pressure_sealevel;temperature;humidity
19447;BME280;9862;49.462;11.054;2023-02-01T00:02:26;98481.53;;;4.59;100.00
19447;BME280;9862;49.462;11.054;2023-02-01T00:04:52;98478.56;;;4.54;100.00
19447;BME280;9862;49.462;11.054;2023-02-01T00:07:20;98473.59;;;4.51;100.00
19447;BME280;9862;49.462;11.054;2023-02-01T00:09:47;98466.34;;;4.53;100.00
19447;BME280;9862;49.462;11.054;2023-02-01T00:12:13;98466.34;;;4.53;100.00
19447;BME280;9862;49.462;11.054;2023-02-01T00:14:40;98464.69;;;4.52;100.00
19447;BME280;9862;49.462;11.054;2023-02-01T00:17:06;98463.56;;;4.54;100.00
19447;BME280;9862;49.462;11.054;2023-02-01T00:19:34;98467.34;;;4.60;100.00
19447;BME280;9862;49.462;11.054;2023-02-01T00:22:01;98459.28;;;4.62;100.00
19447;BME280;9862;49.462;11.054;2023-02-01T00:24:29;98462.28;;;4.67;100.00
19447;BME280;9862;49.462;11.054;2023-02-01T00:26:56;98468.22;;;4.69;100.00
19447;BME280;9862;49.462;11.054;2023-02-01T00:29:22;98462.13;;;4.68;100.00
19447;BME280;9862;49.462;11.054;2023-02-01T00:31:50;98458.03;;;4.74;100.00
19447;BME280;9862;49.462;11.054;2023-02-01T00:34:17;98467.06;;;4.71;100.00
19447;BME280;9862;49.462;11.054;2023-02-01T00:36:44;98454.41;;;4.75;100.00
19447;BME280;9862;49.462;11.054;2023-02-01T00:39:11;98466.56;;;4.68;100.00
19447;BME280;9862;49.462;11.054;2023-02-01T00:41:40;98458.66;;;4.68;100.00
19447;BME280;9862;49.462;11.054;2023-02-01T00:44:06;98459.47;;;4.68;100.00
19447;BME280;9862;49.462;11.054;2023-02-01T00:46:33;98468.41;;;4.75;100.00
19447;BME280;9862;49.462;11.054;2023-02-01T00:49:00;98471.34;;;4.72;100.00
19447;BME280;9862;49.462;11.054;2023-02-01T00:51:29;98468.44;;;4.83;100.00
19447;BME280;9862;49.462;11.054;2023-02-01T00:53:56;98456.41;;;4.89;100.00
19447;BME280;9862;49.462;11.054;2023-02-01T00:56:23;98468.25;;;4.85;100.00
19447;BME280;9862;49.462;11.054;2023-02-01T00:58:51;98452.25;;;4.78;100.00
19447;BME280;9862;49.462;11.054;2023-02-01T01:01:20;98452.75;;;4.74;100.00
19447;BME280;9862;49.462;11.054;2023-02-01T01:03:48;98456.69;;;4.70;100.00
19447;BME280;9862;49.462;11.054;2023-02-01T01:06:18;98453.72;;;4.73;100.00
19447;BME280;9862;49.462;11.054;2023-02-01T01:08:45;98448.47;;;4.81;100.00
19447;BME280;9862;49.462;11.054;2023-02-01T01:11:14;98443.88;;;4.83;100.00
19447;BME280;9862;49.462;11.054;2023-02-01T01:13:41;98457.56;;;4.86;100.00
19447;BME280;9862;49.462;11.054;2023-02-01T01:16:10;98449.00;;;4.93;100.00
19447;BME280;9862;49.462;11.054;2023-02-01T01:18:37;98444.19;;;4.88;100.00
19447;BME280;9862;49.462;11.054;2023-02-01T01:21:05;98449.44;;;4.80;100.00
19447;BME280;9862;49.462;11.054;2023-02-01T01:23:32;98455.72;;;4.79;100.00
19447;BME280;9862;49.462;11.054;2023-02-01T01:25:59;98454.75;;;4.88;100.00
19447;BME280;9862;49.462;11.054;2023-02-01T01:28:26;98451.28;;;4.87;100.00
19447;BME280;9862;49.462;11.054;2023-02-01T01:30:53;98449.16;;;4.83;100.00
19447;BME280;9862;49.462;11.054;2023-02-01T01:33:21;98454.41;;;4.75;100.00
19447;BME280;9862;49.462;11.054;2023-02-01T01:35:47;98455.22;;;4.75;100.00
19447;BME280;9862;49.462;11.054;2023-02-01T01:38:14;98456.69;;;4.70;100.00
19447;BME280;9862;49.462;11.054;2023-02-01T01:40:44;98459.00;;;4.65;100.00
19447;BME280;9862;49.462;11.054;2023-02-01T01:43:13;98453.22;;;4.69;100.00
19447;BME280;9862;49.462;11.054;2023-02-01T01:45:40;98455.69;;;4.71;100.00
19447;BME280;9862;49.462;11.054;2023-02-01T01:48:13;98448.59;;;4.71;100.00
19447;BME280;9862;49.462;11.054;2023-02-01T01:50:46;98453.56;;;4.74;100.00
19447;BME280;9862;49.462;11.054;2023-02-01T01:53:18;98445.81;;;4.81;100.00
19447;BME280;9862;49.462;11.054;2023-02-01T01:55:47;98446.31;;;4.76;100.00
19447;BME280;9862;49.462;11.054;2023-02-01T01:58:17;98437.09;;;4.80;100.00
19447;BME280;9862;49.462;11.054;2023-02-01T02:00:46;98432.00;;;4.87;100.00
19447;BME280;9862;49.462;11.054;2023-02-01T02:03:15;98433.31;;;4.91;100.00
19447;BME280;9862;49.462;11.054;2023-02-01T02:05:44;98435.63;;;4.86;100.00
19447;BME280;9862;49.462;11.054;2023-02-01T02:08:11;98441.88;;;4.77;100.00
19447;BME280;9862;49.462;11.054;2023-02-01T02:10:38;98440.72;;;4.79;100.00
19447;BME280;9862;49.462;11.054;2023-02-01T02:13:22;98434.00;;;4.85;100.00
19447;BME280;9862;49.462;11.054;2023-02-01T02:15:58;98443.56;;;4.94;100.00
19447;BME280;9862;49.462;11.054;2023-02-01T02:18:34;98425.75;;;4.96;100.00
19447;BME280;9862;49.462;11.054;2023-02-01T02:21:14;98417.19;;;4.94;100.00
19447;BME280;9862;49.462;11.054;2023-02-01T02:24:03;98424.09;;;4.87;100.00
19447;BME280;9862;49.462;11.054;2023-02-01T02:26:56;98412.22;;;4.91;100.00
19447;BME280;9862;49.462;11.054;2023-02-01T02:29:54;98412.91;;;4.93;100.00
19447;BME280;9862;49.462;11.054;2023-02-01T02:32:51;98417.84;;;4.88;100.00
19447;BME280;9862;49.462;11.054;2023-02-01T02:35:29;98412.22;;;4.91;100.00
19447;BME280;9862;49.462;11.054;2023-02-01T02:38:03;98409.44;;;4.93;100.00
19447;BME280;9862;49.462;11.054;2023-02-01T02:40:36;98404.19;;;4.93;100.00
19447;BME280;9862;49.462;11.054;2023-02-01T02:43:11;98400.38;;;4.87;100.00
19447;BME280;9862;49.462;11.054;2023-02-01T02:46:19;98413.19;;;4.82;100.00
19447;BME280;9862;49.462;11.054;2023-02-01T02:49:09;98415.84;;;4.74;100.00
19447;BME280;9862;49.462;11.054;2023-02-01T02:51:41;98409.09;;;4.79;100.00
19447;BME280;9862;49.462;11.054;2023-02-01T02:54:29;98414.53;;;4.86;100.00
19447;BME280;9862;49.462;11.054;2023-02-01T02:57:15;98413.22;;;4.90;100.00
19447;BME280;9862;49.462;11.054;2023-02-01T03:00:03;98412.09;;;4.93;100.00
19447;BME280;9862;49.462;11.054;2023-02-01T03:02:49;98400.84;;;4.91;100.00
19447;BME280;9862;49.462;11.054;2023-02-01T03:05:33;98397.91;;;4.85;100.00
19447;BME280;9862;49.462;11.054;2023-02-01T03:08:05;98396.72;;;4.80;100.00
19447;BME280;9862;49.462;11.054;2023-02-01T03:10:44;98381.06;;;4.78;100.00
19447;BME280;9862;49.462;11.054;2023-02-01T03:13:20;98380.91;;;4.80;100.00
19447;BME280;9862;49.462;11.054;2023-02-01T03:15:53;98381.72;;;4.72;100.00
19447;BME280;9862;49.462;11.054;2023-02-01T03:18:28;98372.00;;;4.73;100.00
19447;BME280;9862;49.462;11.054;2023-02-01T03:20:59;98356.31;;;4.63;100.00
19447;BME280;9862;49.462;11.054;2023-02-01T03:23:33;98374.13;;;4.61;100.00
19447;BME280;9862;49.462;11.054;2023-02-01T03:26:04;98365.09;;;4.64;100.00
19447;BME280;9862;49.462;11.054;2023-02-01T03:28:33;98376.59;;;4.71;100.00
19447;BME280;9862;49.462;11.054;2023-02-01T03:31:02;98373.66;;;4.74;100.00
19447;BME280;9862;49.462;11.054;2023-02-01T03:33:29;98382.53;;;4.73;100.00
19447;BME280;9862;49.462;11.054;2023-02-01T03:36:02;98372.66;;;4.75;100.00
19447;BME280;9862;49.462;11.054;2023-02-01T03:38:38;98358.97;;;4.63;100.00
19447;BME280;9862;49.462;11.054;2023-02-01T03:41:10;98355.19;;;4.66;100.00
19447;BME280;9862;49.462;11.054;2023-02-01T03:43:44;98370.84;;;4.75;100.00
19447;BME280;9862;49.462;11.054;2023-02-01T03:46:18;98373.31;;;4.77;100.00
19447;BME280;9862;49.462;11.054;2023-02-01T03:48:48;98365.25;;;4.78;100.00
19447;BME280;9862;49.462;11.054;2023-02-01T03:51:16;98368.22;;;4.75;100.00
19447;BME280;9862;49.462;11.054;2023-02-01T03:53:46;98362.44;;;4.80;100.00
19447;BME280;9862;49.462;11.054;2023-02-01T03:56:14;98362.44;;;4.80;100.00
19447;BME280;9862;49.462;11.054;2023-02-01T03:58:42;98367.72;;;4.80;100.00
19447;BME280;9862;49.462;11.054;2023-02-01T04:01:23;98358.34;;;4.77;100.00
19447;BME280;9862;49.462;11.054;2023-02-01T04:03:49;98350.44;;;4.85;100.00
19447;BME280;9862;49.462;11.054;2023-02-01T04:06:16;98358.00;;;4.80;100.00
19447;BME280;9862;49.462;11.054;2023-02-01T04:08:44;98346.63;;;4.80;100.00
19447;BME280;9862;49.462;11.054;2023-02-01T04:11:11;98347.63;;;4.87;100.00
19447;BME280;9862;49.462;11.054;2023-02-01T04:13:37;98335.91;;;4.81;100.00
19447;BME280;9862;49.462;11.054;2023-02-01T04:16:05;98331.16;;;4.77;100.00
19447;BME280;9862;49.462;11.054;2023-02-01T04:18:32;98339.06;;;4.85;100.00
19447;BME280;9862;49.462;11.054;2023-02-01T04:20:59;98338.72;;;4.80;100.00
19447;BME280;9862;49.462;11.054;2023-02-01T04:23:26;98345.50;;;4.74;100.00
19447;BME280;9862;49.462;11.054;2023-02-01T04:25:58;98351.59;;;4.83;100.00
19447;BME280;9862;49.462;11.054;2023-02-01T04:28:26;98340.03;;;4.76;100.00
19447;BME280;9862;49.462;11.054;2023-02-01T04:30:52;98340.38;;;4.81;100.00
19447;BME280;9862;49.462;11.054;2023-02-01T04:33:19;98335.78;;;4.83;100.00
19447;BME280;9862;49.462;11.054;2023-02-01T04:35:45;98335.06;;;4.73;100.00
19447;BME280;9862;49.462;11.054;2023-02-01T04:38:12;98336.06;;;4.72;100.00
19447;BME280;9862;49.462;11.054;2023-02-01T04:40:39;98333.28;;;4.65;100.00
19447;BME280;9862;49.462;11.054;2023-02-01T04:43:06;98336.91;;;4.64;100.00
19447;BME280;9862;49.462;11.054;2023-02-01T04:45:33;98325.19;;;4.58;100.00
19447;BME280;9862;49.462;11.054;2023-02-01T04:48:00;98332.78;;;4.62;100.00
19447;BME280;9862;49.462;11.054;2023-02-01T04:50:26;98339.69;;;4.63;100.00
19447;BME280;9862;49.462;11.054;2023-02-01T04:52:53;98321.41;;;4.61;100.00
19447;BME280;9862;49.462;11.054;2023-02-01T04:55:19;98329.16;;;4.63;100.00
19447;BME280;9862;49.462;11.054;2023-02-01T04:57:46;98331.78;;;4.63;100.00
19447;BME280;9862;49.462;11.054;2023-02-01T05:00:15;98322.06;;;4.63;100.00
19447;BME280;9862;49.462;11.054;2023-02-01T05:02:42;98325.53;;;4.64;100.00
19447;BME280;9862;49.462;11.054;2023-02-01T05:05:08;98345.28;;;4.59;100.00
19447;BME280;9862;49.462;11.054;2023-02-01T05:07:35;98343.00;;;4.65;100.00
19447;BME280;9862;49.462;11.054;2023-02-01T05:10:02;98335.91;;;4.57;100.00
19447;BME280;9862;49.462;11.054;2023-02-01T05:12:29;98338.38;;;4.58;100.00
19447;BME280;9862;49.462;11.054;2023-02-01T05:15:14;98338.88;;;4.62;100.00
19447;BME280;9862;49.462;11.054;2023-02-01T05:17:41;98326.50;;;4.63;100.00
19447;BME280;9862;49.462;11.054;2023-02-01T05:20:09;98322.41;;;4.68;100.00
19447;BME280;9862;49.462;11.054;2023-02-01T05:22:35;98329.81;;;4.73;100.00
19447;BME280;9862;49.462;11.054;2023-02-01T05:25:02;98337.25;;;4.77;100.00
19447;BME280;9862;49.462;11.054;2023-02-01T05:27:29;98330.97;;;4.86;100.00
19447;BME280;9862;49.462;11.054;2023-02-01T05:29:56;98332.47;;;4.97;100.00
19447;BME280;9862;49.462;11.054;2023-02-01T05:32:24;98329.16;;;4.95;100.00
19447;BME280;9862;49.462;11.054;2023-02-01T05:34:50;98333.75;;;5.01;100.00
19447;BME280;9862;49.462;11.054;2023-02-01T05:37:17;98341.53;;;5.03;100.00
19447;BME280;9862;49.462;11.054;2023-02-01T05:39:43;98333.75;;;5.09;100.00
19447;BME280;9862;49.462;11.054;2023-02-01T05:42:10;98340.38;;;5.05;100.00
19447;BME280;9862;49.462;11.054;2023-02-01T05:44:36;98355.38;;;4.97;100.00
19447;BME280;9862;49.462;11.054;2023-02-01T05:47:03;98357.84;;;4.90;100.00
19447;BME280;9862;49.462;11.054;2023-02-01T05:49:31;98348.78;;;4.93;100.00
19447;BME280;9862;49.462;11.054;2023-02-01T05:51:58;98333.63;;;4.86;100.00
19447;BME280;9862;49.462;11.054;2023-02-01T05:54:25;98329.81;;;4.65;100.00
19447;BME280;9862;49.462;11.054;2023-02-01T05:56:51;98315.00;;;4.64;100.00
19447;BME280;9862;49.462;11.054;2023-02-01T05:59:18;98332.44;;;4.56;100.00
19447;BME280;9862;49.462;11.054;2023-02-01T06:01:44;98338.19;;;4.52;100.00
19447;BME280;9862;49.462;11.054;2023-02-01T06:04:11;98338.19;;;4.36;100.00
19447;BME280;9862;49.462;11.054;2023-02-01T06:06:39;98326.63;;;4.28;100.00
19447;BME280;9862;49.462;11.054;2023-02-01T06:09:05;98324.81;;;4.29;100.00
19447;BME280;9862;49.462;11.054;2023-02-01T06:11:32;98314.25;;;4.13;100.00
19447;BME280;9862;49.462;11.054;2023-02-01T06:13:59;98314.91;;;4.15;100.00
19447;BME280;9862;49.462;11.054;2023-02-01T06:16:27;98303.41;;;4.16;100.00
19447;BME280;9862;49.462;11.054;2023-02-01T06:18:54;98296.31;;;4.16;100.00
19447;BME280;9862;49.462;11.054;2023-02-01T06:21:20;98296.81;;;4.20;100.00
19447;BME280;9862;49.462;11.054;2023-02-01T06:23:51;98298.47;;;4.21;100.00
19447;BME280;9862;49.462;11.054;2023-02-01T06:26:17;98303.41;;;4.24;100.00
19447;BME280;9862;49.462;11.054;2023-02-01T06:28:44;98302.09;;;4.28;100.00
19447;BME280;9862;49.462;11.054;2023-02-01T06:31:11;98304.78;;;4.77;100.00
19447;BME280;9862;49.462;11.054;2023-02-01T06:33:39;98296.81;;;5.34;100.00
19447;BME280;9862;49.462;11.054;2023-02-01T06:36:07;98289.19;;;5.86;100.00
19447;BME280;9862;49.462;11.054;2023-02-01T06:38:35;98302.34;;;5.55;100.00
19447;BME280;9862;49.462;11.054;2023-02-01T06:41:03;98313.31;;;5.20;100.00
19447;BME280;9862;49.462;11.054;2023-02-01T06:43:31;98307.06;;;5.12;100.00
19447;BME280;9862;49.462;11.054;2023-02-01T06:45:59;98309.41;;;4.83;100.00
19447;BME280;9862;49.462;11.054;2023-02-01T06:48:26;98304.13;;;4.67;100.00
19447;BME280;9862;49.462;11.054;2023-02-01T06:50:53;98312.50;;;4.62;100.00
19447;BME280;9862;49.462;11.054;2023-02-01T06:53:19;98292.75;;;4.50;100.00
19447;BME280;9862;49.462;11.054;2023-02-01T06:55:53;98307.69;;;4.33;100.00
19447;BME280;9862;49.462;11.054;2023-02-01T06:58:21;98299.78;;;4.33;100.00
19447;BME280;9862;49.462;11.054;2023-02-01T07:00:48;98302.75;;;4.30;100.00
19447;BME280;9862;49.462;11.054;2023-02-01T07:03:14;98304.06;;;4.34;100.00
19447;BME280;9862;49.462;11.054;2023-02-01T07:05:41;98307.53;;;4.43;100.00
19447;BME280;9862;49.462;11.054;2023-02-01T07:08:08;98303.78;;;4.37;100.00
19447;BME280;9862;49.462;11.054;2023-02-01T07:10:34;98311.97;;;4.34;100.00
19447;BME280;9862;49.462;11.054;2023-02-01T07:13:01;98309.53;;;4.41;100.00
19447;BME280;9862;49.462;11.054;2023-02-01T07:15:29;98309.19;;;4.44;100.00
19447;BME280;9862;49.462;11.054;2023-02-01T07:17:56;98309.34;;;4.34;100.00
19447;BME280;9862;49.462;11.054;2023-02-01T07:20:23;98311.81;;;4.27;100.00
19447;BME280;9862;49.462;11.054;2023-02-01T07:22:54;98313.63;;;4.27;100.00
19447;BME280;9862;49.462;11.054;2023-02-01T07:25:21;98306.38;;;4.29;100.00
19447;BME280;9862;49.462;11.054;2023-02-01T07:27:48;98300.13;;;4.30;100.00
19447;BME280;9862;49.462;11.054;2023-02-01T07:30:14;98303.44;;;4.40;100.00
19447;BME280;9862;49.462;11.054;2023-02-01T07:32:42;98311.19;;;4.50;100.00
19447;BME280;9862;49.462;11.054;2023-02-01T07:35:09;98312.66;;;4.52;100.00
19447;BME280;9862;49.462;11.054;2023-02-01T07:37:35;98308.72;;;4.56;100.00
19447;BME280;9862;49.462;11.054;2023-02-01T07:40:03;98312.03;;;4.67;100.00
19447;BME280;9862;49.462;11.054;2023-02-01T07:42:29;98315.50;;;4.67;100.00
19447;BME280;9862;49.462;11.054;2023-02-01T07:44:56;98316.97;;;4.62;100.00
19447;BME280;9862;49.462;11.054;2023-02-01T07:47:23;98307.41;;;4.60;100.00
19447;BME280;9862;49.462;11.054;2023-02-01T07:49:51;98298.84;;;4.58;100.00
19447;BME280;9862;49.462;11.054;2023-02-01T07:52:18;98298.50;;;4.70;100.00
19447;BME280;9862;49.462;11.054;2023-02-01T07:54:44;98302.63;;;4.72;100.00
19447;BME280;9862;49.462;11.054;2023-02-01T07:57:11;98303.78;;;4.86;100.00
19447;BME280;9862;49.462;11.054;2023-02-01T07:59:38;98299.16;;;4.80;100.00
19447;BME280;9862;49.462;11.054;2023-02-01T08:02:25;98295.22;;;4.84;100.00
19447;BME280;9862;49.462;11.054;2023-02-01T08:04:52;98298.84;;;4.83;100.00
19447;BME280;9862;49.462;11.054;2023-02-01T08:07:18;98283.03;;;4.83;100.00
19447;BME280;9862;49.462;11.054;2023-02-01T08:09:45;98291.78;;;4.83;100.00
19447;BME280;9862;49.462;11.054;2023-02-01T08:12:11;98287.97;;;4.86;100.00
19447;BME280;9862;49.462;11.054;2023-02-01T08:14:38;98286.63;;;4.82;100.00
19447;BME280;9862;49.462;11.054;2023-02-01T08:17:06;98299.16;;;4.80;100.00
19447;BME280;9862;49.462;11.054;2023-02-01T08:19:32;98302.47;;;4.82;100.00
19447;BME280;9862;49.462;11.054;2023-02-01T08:22:00;98291.25;;;4.88;100.00
19447;BME280;9862;49.462;11.054;2023-02-01T08:24:32;98284.34;;;4.87;100.00
19447;BME280;9862;49.462;11.054;2023-02-01T08:27:00;98291.44;;;4.86;100.00
19447;BME280;9862;49.462;11.054;2023-02-01T08:29:27;98294.53;;;4.90;100.00
19447;BME280;9862;49.462;11.054;2023-02-01T08:31:53;98303.44;;;4.89;100.00
19447;BME280;9862;49.462;11.054;2023-02-01T08:34:20;98302.47;;;4.90;100.00
19447;BME280;9862;49.462;11.054;2023-02-01T08:36:47;98310.88;;;4.94;100.00
19447;BME280;9862;49.462;11.054;2023-02-01T08:39:15;98330.81;;;5.04;100.00
19447;BME280;9862;49.462;11.054;2023-02-01T08:41:41;98320.56;;;5.01;100.00
19447;BME280;9862;49.462;11.054;2023-02-01T08:44:28;98327.84;;;5.07;100.00
19447;BME280;9862;49.462;11.054;2023-02-01T08:46:54;98329.66;;;5.07;100.00
19447;BME280;9862;49.462;11.054;2023-02-01T08:49:21;98338.38;;;5.07;100.00
19447;BME280;9862;49.462;11.054;2023-02-01T08:51:48;98345.66;;;5.05;100.00
19447;BME280;9862;49.462;11.054;2023-02-01T08:54:15;98328.00;;;5.14;100.00
19447;BME280;9862;49.462;11.054;2023-02-01T08:56:42;98328.13;;;5.21;100.00
19447;BME280;9862;49.462;11.054;2023-02-01T08:59:08;98326.84;;;5.16;100.00
19447;BME280;9862;49.462;11.054;2023-02-01T09:01:35;98333.41;;;5.21;100.00
19447;BME280;9862;49.462;11.054;2023-02-01T09:04:02;98332.41;;;5.30;100.00
19447;BME280;9862;49.462;11.054;2023-02-01T09:06:28;98330.78;;;5.29;100.00
19447;BME280;9862;49.462;11.054;2023-02-01T09:08:55;98339.03;;;5.34;100.00
19447;BME280;9862;49.462;11.054;2023-02-01T09:11:23;98335.56;;;5.25;100.00
19447;BME280;9862;49.462;11.054;2023-02-01T09:13:50;98339.69;;;5.28;100.00
19447;BME280;9862;49.462;11.054;2023-02-01T09:16:17;98329.13;;;5.11;100.00
19447;BME280;9862;49.462;11.054;2023-02-01T09:18:44;98357.50;;;5.09;100.00
19447;BME280;9862;49.462;11.054;2023-02-01T09:21:11;98354.56;;;5.04;100.00
19447;BME280;9862;49.462;11.054;2023-02-01T09:23:37;98362.13;;;4.99;100.00
19447;BME280;9862;49.462;11.054;2023-02-01T09:26:05;98343.00;;;4.97;100.00
19447;BME280;9862;49.462;11.054;2023-02-01T09:28:33;98372.84;;;4.89;100.00
19447;BME280;9862;49.462;11.054;2023-02-01T09:31:01;98364.75;;;4.75;100.00
19447;BME280;9862;49.462;11.054;2023-02-01T09:33:28;98386.00;;;4.65;100.00
19447;BME280;9862;49.462;11.054;2023-02-01T09:35:56;98407.41;;;4.62;100.00
19447;BME280;9862;49.462;11.054;2023-02-01T09:38:22;98419.53;;;4.39;100.00
19447;BME280;9862;49.462;11.054;2023-02-01T09:40:51;98397.22;;;4.17;100.00
19447;BME280;9862;49.462;11.054;2023-02-01T09:43:25;98396.53;;;4.07;100.00
19447;BME280;9862;49.462;11.054;2023-02-01T09:46:05;98407.06;;;4.15;100.00
19447;BME280;9862;49.462;11.054;2023-02-01T09:48:38;98413.22;;;4.23;100.00
19447;BME280;9862;49.462;11.054;2023-02-01T09:51:13;98424.59;;;4.32;100.00
19447;BME280;9862;49.462;11.054;2023-02-01T09:53:43;98432.25;;;4.51;100.00
19447;BME280;9862;49.462;11.054;2023-02-01T09:56:13;98424.19;;;4.61;100.00
19447;BME280;9862;49.462;11.054;2023-02-01T09:58:42;98434.47;;;4.80;100.00
19447;BME280;9862;49.462;11.054;2023-02-01T10:01:16;98440.56;;;4.89;100.00
19447;BME280;9862;49.462;11.054;2023-02-01T10:03:44;98441.41;;;4.98;100.00
19447;BME280;9862;49.462;11.054;2023-02-01T10:06:33;98446.19;;;4.94;100.00
19447;BME280;9862;49.462;11.054;2023-02-01T10:09:15;98438.97;;;5.04;100.00
19447;BME280;9862;49.462;11.054;2023-02-01T10:11:56;98434.34;;;5.14;100.00
19447;BME280;9862;49.462;11.054;2023-02-01T10:14:46;98431.69;;;5.06;100.00
19447;BME280;9862;49.462;11.054;2023-02-01T10:17:25;98443.41;;;5.04;100.00
19447;BME280;9862;49.462;11.054;2023-02-01T10:20:03;98428.25;;;5.06;100.00
19447;BME280;9862;49.462;11.054;2023-02-01T10:22:40;98437.16;;;5.13;100.00
19447;BME280;9862;49.462;11.054;2023-02-01T10:25:13;98429.91;;;5.15;100.00
19447;BME280;9862;49.462;11.054;2023-02-01T10:27:40;98426.44;;;5.23;100.00
19447;BME280;9862;49.462;11.054;2023-02-01T10:30:16;98417.84;;;5.21;100.00
19447;BME280;9862;49.462;11.054;2023-02-01T10:32:45;98410.28;;;5.26;100.00
19447;BME280;9862;49.462;11.054;2023-02-01T10:35:17;98405.34;;;5.23;100.00
19447;BME280;9862;49.462;11.054;2023-02-01T10:37:44;98412.44;;;5.22;100.00
19447;BME280;9862;49.462;11.054;2023-02-01T10:40:16;98425.94;;;5.35;100.00
19447;BME280;9862;49.462;11.054;2023-02-01T10:42:43;98410.75;;;5.37;100.00
19447;BME280;9862;49.462;11.054;2023-02-01T10:45:14;98414.72;;;5.41;100.00
19447;BME280;9862;49.462;11.054;2023-02-01T10:47:45;98402.66;;;5.47;100.00
19447;BME280;9862;49.462;11.054;2023-02-01T10:50:18;98414.72;;;5.41;100.00
19447;BME280;9862;49.462;11.054;2023-02-01T10:52:50;98415.88;;;5.39;100.00
19447;BME280;9862;49.462;11.054;2023-02-01T10:55:32;98418.03;;;5.35;100.00
19447;BME280;9862;49.462;11.054;2023-02-01T10:58:01;98411.75;;;5.44;100.00
19447;BME280;9862;49.462;11.054;2023-02-01T11:00:28;98402.00;;;5.53;100.00
19447;BME280;9862;49.462;11.054;2023-02-01T11:03:19;98402.66;;;5.55;100.00
19447;BME280;9862;49.462;11.054;2023-02-01T11:05:47;98391.75;;;5.58;100.00
19447;BME280;9862;49.462;11.054;2023-02-01T11:08:16;98393.75;;;5.48;100.00
19447;BME280;9862;49.462;11.054;2023-02-01T11:10:44;98408.28;;;5.52;100.00
19447;BME280;9862;49.462;11.054;2023-02-01T11:13:13;98403.16;;;5.51;100.00
19447;BME280;9862;49.462;11.054;2023-02-01T11:15:43;98405.28;;;5.55;100.00
19447;BME280;9862;49.462;11.054;2023-02-01T11:18:18;98399.34;;;5.61;100.00
19447;BME280;9862;49.462;11.054;2023-02-01T11:20:46;98386.16;;;5.69;100.00
19447;BME280;9862;49.462;11.054;2023-02-01T11:23:16;98394.56;;;5.65;100.00
19447;BME280;9862;49.462;11.054;2023-02-01T11:25:48;98374.97;;;5.51;100.00
19447;BME280;9862;49.462;11.054;2023-02-01T11:28:16;98367.34;;;5.56;100.00
19447;BME280;9862;49.462;11.054;2023-02-01T11:30:45;98368.63;;;5.68;100.00
19447;BME280;9862;49.462;11.054;2023-02-01T11:33:17;98370.31;;;5.69;100.00
19447;BME280;9862;49.462;11.054;2023-02-01T11:35:45;98382.81;;;5.67;100.00
19447;BME280;9862;49.462;11.054;2023-02-01T11:38:21;98365.97;;;5.77;100.00
19447;BME280;9862;49.462;11.054;2023-02-01T11:40:48;98370.09;;;5.79;100.00
19447;BME280;9862;49.462;11.054;2023-02-01T11:43:19;98371.06;;;5.86;100.00
19447;BME280;9862;49.462;11.054;2023-02-01T11:45:57;98363.97;;;5.79;100.00
19447;BME280;9862;49.462;11.054;2023-02-01T11:48:27;98367.59;;;5.94;100.00
19447;BME280;9862;49.462;11.054;2023-02-01T11:51:06;98353.38;;;5.87;100.00
19447;BME280;9862;49.462;11.054;2023-02-01T11:53:45;98343.81;;;5.86;100.00
19447;BME280;9862;49.462;11.054;2023-02-01T11:56:23;98346.16;;;5.81;100.00
19447;BME280;9862;49.462;11.054;2023-02-01T11:59:07;98348.66;;;5.74;100.00
19447;BME280;9862;49.462;11.054;2023-02-01T12:01:54;98349.63;;;5.81;100.00
19447;BME280;9862;49.462;11.054;2023-02-01T12:04:59;98358.19;;;5.83;100.00
19447;BME280;9862;49.462;11.054;2023-02-01T12:10:35;98347.47;;;5.85;100.00
19447;BME280;9862;49.462;11.054;2023-02-01T12:13:13;98355.72;;;5.82;100.00
19447;BME280;9862;49.462;11.054;2023-02-01T12:15:55;98342.34;;;5.91;100.00
19447;BME280;9862;49.462;11.054;2023-02-01T12:18:38;98336.91;;;5.85;100.00
19447;BME280;9862;49.462;11.054;2023-02-01T12:21:22;98337.91;;;5.75;100.00
19447;BME280;9862;49.462;11.054;2023-02-01T12:24:06;98334.94;;;5.79;100.00
19447;BME280;9862;49.462;11.054;2023-02-01T12:26:46;98334.28;;;5.77;100.00
19447;BME280;9862;49.462;11.054;2023-02-01T12:29:47;98327.31;;;5.84;100.00
19447;BME280;9862;49.462;11.054;2023-02-01T12:32:28;98325.88;;;5.81;100.00
19447;BME280;9862;49.462;11.054;2023-02-01T12:35:27;98320.41;;;5.91;100.00
19447;BME280;9862;49.462;11.054;2023-02-01T12:38:10;98307.50;;;5.96;100.00
19447;BME280;9862;49.462;11.054;2023-02-01T12:40:56;98293.63;;;5.94;100.00
19447;BME280;9862;49.462;11.054;2023-02-01T12:43:36;98309.03;;;5.90;100.00
19447;BME280;9862;49.462;11.054;2023-02-01T12:46:09;98304.56;;;5.83;100.00
19447;BME280;9862;49.462;11.054;2023-02-01T12:48:42;98302.09;;;5.81;100.00
19447;BME280;9862;49.462;11.054;2023-02-01T12:51:15;98301.56;;;5.86;100.00
19447;BME280;9862;49.462;11.054;2023-02-01T12:53:47;98304.22;;;5.94;100.00
19447;BME280;9862;49.462;11.054;2023-02-01T12:56:22;98297.00;;;5.80;100.00
19447;BME280;9862;49.462;11.054;2023-02-01T12:58:52;98298.59;;;5.89;100.00
19447;BME280;9862;49.462;11.054;2023-02-01T13:01:22;98300.56;;;5.95;100.00
19447;BME280;9862;49.462;11.054;2023-02-01T13:03:57;98306.03;;;5.85;100.00
19447;BME280;9862;49.462;11.054;2023-02-01T13:06:28;98291.00;;;5.86;100.00
19447;BME280;9862;49.462;11.054;2023-02-01T13:09:02;98294.34;;;5.80;100.00
19447;BME280;9862;49.462;11.054;2023-02-01T13:11:33;98292.00;;;5.85;100.00
19447;BME280;9862;49.462;11.054;2023-02-01T13:14:03;98291.00;;;5.86;100.00
19447;BME280;9862;49.462;11.054;2023-02-01T13:16:31;98288.06;;;5.81;100.00
19447;BME280;9862;49.462;11.054;2023-02-01T13:19:05;98283.81;;;5.71;100.00
19447;BME280;9862;49.462;11.054;2023-02-01T13:21:38;98287.94;;;5.74;100.00
19447;BME280;9862;49.462;11.054;2023-02-01T13:24:17;98300.81;;;5.69;100.00